createdAt,value
2019-01-22T00:01:25.503Z,70.05
2019-01-22T00:03:51.930Z,70.21
2019-01-22T00:06:18.657Z,70.15
2019-01-22T00:08:45.247Z,70.07
2019-01-22T00:11:11.646Z,69.54
2019-01-22T00:13:38.039Z,69.30
2019-01-22T00:16:04.709Z,69.64
2019-01-22T00:18:31.225Z,70.00
2019-01-22T00:20:57.676Z,69.78
2019-01-22T00:23:24.421Z,70.10
2019-01-22T00:25:50.865Z,70.26
2019-01-22T00:28:17.356Z,69.70
2019-01-22T00:30:44.062Z,69.78
2019-01-22T00:33:10.697Z,69.67
2019-01-22T00:35:37.126Z,70.25
2019-01-22T00:38:03.624Z,69.80
2019-01-22T00:40:30.074Z,69.64
2019-01-22T00:42:56.800Z,69.71
2019-01-22T00:45:23.285Z,69.87
2019-01-22T00:47:49.909Z,70.23
2019-01-22T00:50:17.214Z,70.31
2019-01-22T00:52:43.780Z,70.52
2019-01-22T00:55:14.880Z,70.19
2019-01-22T00:57:41.404Z,70.22
2019-01-22T01:00:13.580Z,70.39
2019-01-22T01:02:40.006Z,69.80
2019-01-22T01:05:06.997Z,69.72
2019-01-22T01:07:33.426Z,69.85
2019-01-22T01:10:00.268Z,69.94
2019-01-22T01:12:26.774Z,69.86
2019-01-22T01:14:53.322Z,69.83
2019-01-22T01:17:20.948Z,70.31
2019-01-22T01:19:47.427Z,70.61
2019-01-22T01:22:13.905Z,70.91
2019-01-22T01:24:40.412Z,70.95
2019-01-22T01:27:07.550Z,70.65
2019-01-22T01:29:34.074Z,71.06
2019-01-22T01:32:00.533Z,70.61
2019-01-22T01:34:26.941Z,70.88
2019-01-22T01:36:53.359Z,71.09
2019-01-22T01:39:19.889Z,71.64
2019-01-22T01:41:46.738Z,71.75
2019-01-22T01:44:13.573Z,72.05
2019-01-22T01:46:39.932Z,71.44
2019-01-22T01:49:06.546Z,72.11
2019-01-22T01:51:33.034Z,72.05
2019-01-22T01:53:59.518Z,72.32
2019-01-22T01:56:25.916Z,71.88
2019-01-22T01:58:52.440Z,71.80
2019-01-22T02:01:18.911Z,72.29
2019-01-22T02:03:45.300Z,72.16
2019-01-22T02:06:11.783Z,72.59
2019-01-22T02:08:38.224Z,72.56
2019-01-22T02:11:04.659Z,72.22
2019-01-22T02:13:31.666Z,71.87
2019-01-22T02:16:04.977Z,72.32
2019-01-22T02:18:37.218Z,72.37
2019-01-22T02:21:09.487Z,72.41
2019-01-22T02:23:41.612Z,72.35
2019-01-22T02:26:13.762Z,71.99
2019-01-22T02:28:46.297Z,72.59
2019-01-22T02:31:18.458Z,72.86
2019-01-22T02:33:50.617Z,71.86
2019-01-22T02:36:22.737Z,71.87
2019-01-22T02:38:54.974Z,72.13
2019-01-22T02:41:27.233Z,72.22
2019-01-22T02:43:59.555Z,71.78
2019-01-22T02:46:31.750Z,72.09
2019-01-22T02:49:04.023Z,72.44
2019-01-22T02:51:36.221Z,72.19
2019-01-22T02:54:07.998Z,71.82
2019-01-22T02:56:40.339Z,71.90
2019-01-22T02:59:12.847Z,72.47
2019-01-22T03:01:45.258Z,73.25
2019-01-22T03:04:17.541Z,72.40
2019-01-22T03:06:49.835Z,72.38
2019-01-22T03:09:22.023Z,71.93
2019-01-22T03:11:54.651Z,72.25
2019-01-22T03:14:27.123Z,72.56
2019-01-22T03:16:59.216Z,72.93
2019-01-22T03:19:31.389Z,72.69
2019-01-22T03:22:03.682Z,72.54
2019-01-22T03:24:36.004Z,72.46
2019-01-22T03:27:09.247Z,72.93
2019-01-22T03:29:38.723Z,72.84
2019-01-22T03:32:10.818Z,72.98
2019-01-22T03:34:43.224Z,72.57
2019-01-22T03:37:15.402Z,72.78
2019-01-22T03:39:47.553Z,72.62
2019-01-22T03:42:19.847Z,72.59
2019-01-22T03:44:52.525Z,72.73
2019-01-22T03:47:24.703Z,72.92
2019-01-22T03:49:56.892Z,73.10
2019-01-22T03:52:29.111Z,73.45
2019-01-22T03:55:01.779Z,73.05
2019-01-22T03:57:35.067Z,73.00
2019-01-22T04:00:06.758Z,73.04
2019-01-22T04:02:33.179Z,72.98
2019-01-22T04:04:59.541Z,72.96
2019-01-22T04:07:26.363Z,72.77
2019-01-22T04:09:56.270Z,72.91
2019-01-22T04:12:22.645Z,73.23
2019-01-22T04:14:49.020Z,73.65
2019-01-22T04:17:15.458Z,74.36
2019-01-22T04:19:41.899Z,74.14
2019-01-22T04:22:12.276Z,73.73
2019-01-22T04:24:40.682Z,73.68
2019-01-22T04:27:12.774Z,73.61
2019-01-22T04:29:44.981Z,73.39
2019-01-22T04:32:17.024Z,73.28
2019-01-22T04:35:07.204Z,73.16
2019-01-22T04:37:39.396Z,73.54
2019-01-22T04:40:11.538Z,73.53
2019-01-22T04:42:43.834Z,73.89
2019-01-22T04:45:14.051Z,74.79
2019-01-22T04:47:46.299Z,74.27
2019-01-22T04:50:18.464Z,74.61
2019-01-22T04:52:51.036Z,74.31
2019-01-22T04:55:23.425Z,74.83
2019-01-22T04:57:55.816Z,75.41
2019-01-22T05:00:28.286Z,74.92
2019-01-22T05:03:01.105Z,74.87
2019-01-22T05:05:33.739Z,75.45
2019-01-22T05:08:06.350Z,74.89
2019-01-22T05:10:38.920Z,74.58
2019-01-22T05:13:09.773Z,74.03
2019-01-22T05:15:40.276Z,74.53
2019-01-22T05:18:13.178Z,75.40
2019-01-22T05:20:45.662Z,75.15
2019-01-22T05:23:18.083Z,75.20
2019-01-22T05:25:50.550Z,75.42
2019-01-22T05:28:21.303Z,75.17
2019-01-22T05:30:53.810Z,74.85
2019-01-22T05:33:24.148Z,74.54
2019-01-22T05:35:54.694Z,74.81
2019-01-22T05:38:27.308Z,75.05
2019-01-22T05:40:57.894Z,75.85
2019-01-22T05:43:26.459Z,74.85
2019-01-22T05:45:59.085Z,74.70
2019-01-22T05:48:31.721Z,74.21
2019-01-22T05:51:04.264Z,74.63
2019-01-22T05:53:36.794Z,74.50
2019-01-22T05:56:09.340Z,74.44
2019-01-22T05:58:41.928Z,74.52
2019-01-22T06:01:13.728Z,74.73
2019-01-22T06:03:46.196Z,74.44
2019-01-22T06:06:18.673Z,74.39
2019-01-22T06:08:50.909Z,73.64
2019-01-22T06:11:23.317Z,73.68
2019-01-22T06:13:55.750Z,73.66
2019-01-22T06:16:28.235Z,73.62
2019-01-22T06:19:00.811Z,74.07
2019-01-22T06:21:32.994Z,74.42
2019-01-22T06:24:05.423Z,74.77
2019-01-22T06:26:36.047Z,74.83
2019-01-22T06:29:08.600Z,74.47
2019-01-22T06:31:41.119Z,73.98
2019-01-22T06:34:13.666Z,74.43
2019-01-22T06:36:46.266Z,74.45
2019-01-22T06:39:18.721Z,73.84
2019-01-22T06:41:51.283Z,73.69
2019-01-22T06:44:23.613Z,73.99
2019-01-22T06:46:55.850Z,74.48
2019-01-22T06:49:28.302Z,74.14
2019-01-22T06:52:00.645Z,74.30
2019-01-22T06:54:39.510Z,74.09
2019-01-22T06:57:07.560Z,74.05
2019-01-22T06:59:38.094Z,74.17
2019-01-22T07:02:08.649Z,73.30
2019-01-22T07:04:41.018Z,73.47
2019-01-22T07:07:11.659Z,73.47
2019-01-22T07:09:44.215Z,73.48
2019-01-22T07:12:16.835Z,73.08
2019-01-22T07:14:49.326Z,73.35
2019-01-22T07:17:21.858Z,72.90
2019-01-22T07:19:54.061Z,72.69
2019-01-22T07:22:26.573Z,73.11
2019-01-22T07:24:57.110Z,73.70
2019-01-22T07:27:29.566Z,73.63
2019-01-22T07:30:02.012Z,74.01
2019-01-22T07:32:30.765Z,74.17
2019-01-22T07:35:03.117Z,74.21
2019-01-22T07:37:35.656Z,73.36
2019-01-22T07:40:06.367Z,73.75
2019-01-22T07:42:38.616Z,73.26
2019-01-22T07:45:10.797Z,72.82
2019-01-22T07:47:43.258Z,72.95
2019-01-22T07:50:15.710Z,73.10
2019-01-22T07:52:47.998Z,72.16
2019-01-22T07:55:20.469Z,72.27
2019-01-22T07:57:52.835Z,72.36
2019-01-22T08:00:25.044Z,73.21
2019-01-22T08:02:57.202Z,73.06
2019-01-22T08:05:31.351Z,73.00
2019-01-22T08:08:05.365Z,72.51
2019-01-22T08:10:37.551Z,72.19
2019-01-22T08:13:07.719Z,72.73
2019-01-22T08:15:40.031Z,71.94
2019-01-22T08:18:12.152Z,72.62
2019-01-22T08:20:44.273Z,72.50
2019-01-22T08:23:16.399Z,71.66
2019-01-22T08:25:48.563Z,71.63
2019-01-22T08:28:20.714Z,70.86
2019-01-22T08:30:52.835Z,70.60
2019-01-22T08:33:25.011Z,70.56
2019-01-22T08:35:57.112Z,70.54
2019-01-22T08:38:29.313Z,70.49
2019-01-22T08:41:01.435Z,70.59
2019-01-22T08:43:33.595Z,70.57
2019-01-22T08:46:03.812Z,71.06
2019-01-22T08:48:36.040Z,70.19
2019-01-22T08:51:08.190Z,70.59
2019-01-22T08:53:40.362Z,70.76
2019-01-22T08:56:12.518Z,70.37
2019-01-22T08:58:44.710Z,70.10
2019-01-22T09:01:14.991Z,70.74
2019-01-22T09:03:45.249Z,70.65
2019-01-22T09:06:17.360Z,69.80
2019-01-22T09:08:49.555Z,69.34
2019-01-22T09:11:22.091Z,69.48
2019-01-22T09:13:54.420Z,68.68
2019-01-22T09:16:26.533Z,69.82
2019-01-22T09:18:56.715Z,69.09
2019-01-22T09:21:28.939Z,68.69
2019-01-22T09:24:01.899Z,68.18
2019-01-22T09:26:34.245Z,68.52
2019-01-22T09:29:06.359Z,67.99
2019-01-22T09:31:38.653Z,67.90
2019-01-22T09:34:12.006Z,66.72
2019-01-22T09:36:44.450Z,66.76
2019-01-22T09:39:10.995Z,66.87
2019-01-22T09:41:37.393Z,65.79
2019-01-22T09:44:03.774Z,65.92
2019-01-22T09:46:30.245Z,66.61
2019-01-22T09:48:56.721Z,66.09
2019-01-22T09:51:23.062Z,65.06
2019-01-22T09:53:49.645Z,65.11
2019-01-22T09:56:16.059Z,64.37
2019-01-22T09:58:42.554Z,65.69
2019-01-22T10:01:09.013Z,64.59
2019-01-22T10:03:35.482Z,65.38
2019-01-22T10:06:04.603Z,65.18
2019-01-22T10:08:32.491Z,63.97
2019-01-22T10:11:01.758Z,64.01
2019-01-22T10:13:27.165Z,63.52
2019-01-22T10:15:53.661Z,63.27
2019-01-22T10:18:20.209Z,63.81
2019-01-22T10:20:46.631Z,64.16
2019-01-22T10:23:14.070Z,64.00
2019-01-22T10:25:40.692Z,62.87
2019-01-22T10:28:07.113Z,63.18
2019-01-22T10:30:33.639Z,62.61
2019-01-22T10:33:00.007Z,62.84
2019-01-22T10:35:26.422Z,62.84
2019-01-22T10:37:52.822Z,62.85
2019-01-22T10:40:22.736Z,63.28
2019-01-22T10:42:49.432Z,61.90
2019-01-22T10:45:17.866Z,63.05
2019-01-22T10:47:44.302Z,62.17
2019-01-22T10:50:25.010Z,61.81
2019-01-22T10:52:51.524Z,62.40
2019-01-22T10:55:17.927Z,61.65
2019-01-22T10:57:44.356Z,61.43
2019-01-22T11:00:16.179Z,60.54
2019-01-22T11:02:42.798Z,60.17
2019-01-22T11:05:14.912Z,60.36
2019-01-22T11:07:41.346Z,60.34
2019-01-22T11:10:07.917Z,59.82
2019-01-22T11:12:34.253Z,59.50
2019-01-22T11:15:00.679Z,58.29
2019-01-22T11:17:27.088Z,57.76
2019-01-22T11:19:53.541Z,57.06
2019-01-22T11:22:20.063Z,56.83
2019-01-22T11:24:46.569Z,56.73
2019-01-22T11:27:12.907Z,57.15
2019-01-22T11:29:39.262Z,57.23
2019-01-22T11:32:05.669Z,56.86
2019-01-22T11:34:32.111Z,57.22
2019-01-22T11:36:59.913Z,57.04
2019-01-22T11:39:26.634Z,55.37
2019-01-22T11:41:53.094Z,55.59
2019-01-22T11:44:22.765Z,55.88
2019-01-22T11:46:49.420Z,56.71
2019-01-22T11:49:16.081Z,56.84
2019-01-22T11:51:42.458Z,56.39
2019-01-22T11:54:08.823Z,56.87
2019-01-22T11:56:35.218Z,57.07
2019-01-22T11:59:01.573Z,56.58
2019-01-22T12:01:28.029Z,56.72
2019-01-22T12:03:54.391Z,56.86
2019-01-22T12:06:20.860Z,56.55
2019-01-22T12:08:47.860Z,56.73
2019-01-22T12:11:14.345Z,56.73
2019-01-22T12:13:41.224Z,56.37
2019-01-22T12:16:07.644Z,56.71
2019-01-22T12:18:34.104Z,57.13
2019-01-22T12:21:00.470Z,56.78
2019-01-22T12:23:26.901Z,56.15
2019-01-22T12:25:57.200Z,55.67
2019-01-22T12:28:21.899Z,56.39
2019-01-22T12:30:49.302Z,55.94
2019-01-22T12:33:15.808Z,55.61
2019-01-22T12:35:42.270Z,56.00
2019-01-22T12:38:08.762Z,55.71
2019-01-22T12:40:36.127Z,55.62
2019-01-22T12:43:03.503Z,56.12
2019-01-22T12:45:34.287Z,56.29
2019-01-22T12:48:00.611Z,55.63
2019-01-22T12:50:27.170Z,55.60
2019-01-22T12:52:53.665Z,55.57
2019-01-22T12:55:20.134Z,55.76
2019-01-22T12:57:46.681Z,55.09
2019-01-22T13:00:18.059Z,55.93
2019-01-22T13:02:44.662Z,56.44
2019-01-22T13:05:16.890Z,56.63
2019-01-22T13:07:43.289Z,56.41
2019-01-22T13:10:09.909Z,56.13
2019-01-22T13:12:38.193Z,56.59
2019-01-22T13:15:24.263Z,57.43
2019-01-22T13:17:56.962Z,57.34
2019-01-22T13:20:23.531Z,57.30
2019-01-22T13:22:50.107Z,56.62
2019-01-22T13:25:18.233Z,56.39
2019-01-22T13:27:44.944Z,57.50
2019-01-22T13:30:16.741Z,56.97
2019-01-22T13:32:50.644Z,57.04
2019-01-22T13:35:36.036Z,57.30
2019-01-22T13:38:35.191Z,57.38
2019-01-22T13:41:04.808Z,57.61
2019-01-22T13:43:31.236Z,56.82
2019-01-22T13:45:57.597Z,56.90
2019-01-22T13:48:30.032Z,56.33
2019-01-22T13:50:59.589Z,57.10
2019-01-22T13:53:47.283Z,57.14
2019-01-22T13:56:18.673Z,57.25
2019-01-22T13:58:45.341Z,57.61
2019-01-22T14:01:11.758Z,58.00
2019-01-22T14:03:38.546Z,58.13
2019-01-22T14:06:05.155Z,57.89
2019-01-22T14:08:55.047Z,57.52
2019-01-22T14:11:54.585Z,57.79
2019-01-22T14:14:55.186Z,58.43
2019-01-22T14:17:52.847Z,59.25
2019-01-22T14:20:35.486Z,59.12
2019-01-22T14:23:17.211Z,58.92
2019-01-22T14:25:45.081Z,59.55
2019-01-22T14:28:28.292Z,59.51
2019-01-22T14:30:54.785Z,58.74
2019-01-22T14:33:56.456Z,59.68
2019-01-22T14:36:37.113Z,60.22
2019-01-22T14:39:33.860Z,60.79
2019-01-22T14:45:53.441Z,60.12
2019-01-22T14:48:46.530Z,60.60
2019-01-22T14:54:09.072Z,60.93
2019-01-22T14:56:35.560Z,61.63
2019-01-22T14:59:02.067Z,61.88
2019-01-22T15:01:28.514Z,61.80
2019-01-22T15:03:54.880Z,61.38
2019-01-22T15:06:21.243Z,61.62
2019-01-22T15:08:47.630Z,61.35
2019-01-22T15:11:14.029Z,61.96
2019-01-22T15:13:40.398Z,61.89
2019-01-22T15:16:06.801Z,61.55
2019-01-22T15:18:33.194Z,62.36
2019-01-22T15:20:59.538Z,62.24
2019-01-22T15:23:25.908Z,62.08
2019-01-22T15:25:52.412Z,62.03
2019-01-22T15:28:18.786Z,62.26
2019-01-22T15:30:45.126Z,61.93
2019-01-22T15:33:14.641Z,63.24
2019-01-22T15:35:41.018Z,64.16
2019-01-22T15:38:07.351Z,63.88
2019-01-22T15:40:33.922Z,64.48
2019-01-22T15:43:00.577Z,64.22
2019-01-22T15:45:27.163Z,64.56
2019-01-22T15:47:53.702Z,64.61
2019-01-22T15:50:21.999Z,64.40
2019-01-22T15:52:48.397Z,64.11
2019-01-22T15:55:20.338Z,64.92
2019-01-22T15:57:47.170Z,64.13
2019-01-22T16:00:17.673Z,64.00
2019-01-22T16:02:44.142Z,65.19
2019-01-22T16:05:10.556Z,66.04
2019-01-22T16:07:38.121Z,65.79
2019-01-22T16:10:08.895Z,65.94
2019-01-22T16:12:35.273Z,65.82
2019-01-22T16:15:02.164Z,65.99
2019-01-22T16:17:29.810Z,66.26
2019-01-22T16:19:56.199Z,66.62
2019-01-22T16:22:22.539Z,66.76
2019-01-22T16:24:49.358Z,67.17
2019-01-22T16:27:15.803Z,67.47
2019-01-22T16:29:42.289Z,67.95
2019-01-22T16:32:09.230Z,67.78
2019-01-22T16:34:35.890Z,68.11
2019-01-22T16:37:02.272Z,68.22
2019-01-22T16:39:30.961Z,68.60
2019-01-22T16:41:57.467Z,68.72
2019-01-22T16:44:23.876Z,68.55
2019-01-22T16:46:50.378Z,68.89
2019-01-22T16:49:16.942Z,68.77
2019-01-22T16:51:43.284Z,69.32
2019-01-22T16:54:10.002Z,69.70
2019-01-22T16:56:36.703Z,70.05
2019-01-22T16:59:03.389Z,70.13
2019-01-22T17:01:29.742Z,70.42
2019-01-22T17:03:56.355Z,70.80
2019-01-22T17:06:22.820Z,70.62
2019-01-22T17:08:49.170Z,70.65
2019-01-22T17:11:16.236Z,70.94
2019-01-22T17:13:42.959Z,71.02
2019-01-22T17:16:09.509Z,71.11
2019-01-22T17:18:36.133Z,71.48
2019-01-22T17:21:02.859Z,71.64
2019-01-22T17:23:29.357Z,71.88
2019-01-22T17:25:55.747Z,71.91
2019-01-22T17:28:22.115Z,72.05
2019-01-22T17:30:48.510Z,72.41
2019-01-22T17:33:16.779Z,72.45
2019-01-22T17:35:45.002Z,72.33
2019-01-22T17:38:11.664Z,72.59
2019-01-22T17:40:38.136Z,72.32
2019-01-22T17:43:04.596Z,72.62
2019-01-22T17:45:31.302Z,72.63
2019-01-22T17:47:57.858Z,72.96
2019-01-22T17:50:24.507Z,72.97
2019-01-22T17:52:50.918Z,73.06
2019-01-22T17:55:17.409Z,73.19
2019-01-22T17:57:43.828Z,72.54
2019-01-22T18:00:16.809Z,72.74
2019-01-22T18:02:43.372Z,72.84
2019-01-22T18:05:16.141Z,72.69
2019-01-22T18:07:45.623Z,73.01
2019-01-22T18:10:17.309Z,73.56
2019-01-22T18:12:43.662Z,73.56
2019-01-22T18:15:14.606Z,73.51
2019-01-22T18:17:41.307Z,73.46
2019-01-22T18:20:12.874Z,73.28
2019-01-22T18:22:41.251Z,72.90
2019-01-22T18:25:09.498Z,73.38
2019-01-22T18:27:35.913Z,72.88
2019-01-22T18:30:07.862Z,73.17
2019-01-22T18:32:34.250Z,72.72
2019-01-22T18:35:00.624Z,72.52
2019-01-22T18:37:27.029Z,72.35
2019-01-22T18:39:53.417Z,72.78
2019-01-22T18:42:19.851Z,73.65
2019-01-22T18:44:46.264Z,72.98
2019-01-22T18:47:12.614Z,72.30
2019-01-22T18:49:38.997Z,72.50
2019-01-22T18:52:05.328Z,73.07
2019-01-22T18:54:31.703Z,72.53
2019-01-22T18:56:58.118Z,73.60
2019-01-22T18:59:24.984Z,73.14
2019-01-22T19:01:51.296Z,73.77
2019-01-22T19:04:17.738Z,72.92
2019-01-22T19:06:45.869Z,72.99
2019-01-22T19:09:12.328Z,72.42
2019-01-22T19:11:38.796Z,73.61
2019-01-22T19:14:05.209Z,72.60
2019-01-22T19:16:31.611Z,72.60
2019-01-22T19:18:58.002Z,72.68
2019-01-22T19:21:24.780Z,72.98
2019-01-22T19:23:51.417Z,72.32
2019-01-22T19:26:18.023Z,73.00
2019-01-22T19:28:44.572Z,73.08
2019-01-22T19:31:11.131Z,72.42
2019-01-22T19:33:37.475Z,72.43
2019-01-22T19:36:04.642Z,72.62
2019-01-22T19:38:31.052Z,73.13
2019-01-22T19:40:57.414Z,73.49
2019-01-22T19:43:23.799Z,73.12
2019-01-22T19:45:51.647Z,72.50
2019-01-22T19:48:18.028Z,72.83
2019-01-22T19:50:44.484Z,72.63
2019-01-22T19:53:10.958Z,73.05
2019-01-22T19:55:37.334Z,73.31
2019-01-22T19:58:04.838Z,73.28
2019-01-22T20:00:34.870Z,72.83
2019-01-22T20:03:01.267Z,72.92
2019-01-22T20:05:27.903Z,72.96
2019-01-22T20:07:55.846Z,72.71
2019-01-22T20:10:22.284Z,72.82
2019-01-22T20:12:48.975Z,73.57
2019-01-22T20:15:19.320Z,73.27
2019-01-22T20:17:45.946Z,73.62
2019-01-22T20:20:15.458Z,73.81
2019-01-22T20:22:42.455Z,74.09
2019-01-22T20:25:08.837Z,74.52
2019-01-22T20:27:35.207Z,74.70
2019-01-22T20:30:05.351Z,74.26
2019-01-22T20:32:31.771Z,74.29
2019-01-22T20:34:58.243Z,74.53
2019-01-22T20:37:24.744Z,74.61
2019-01-22T20:39:51.139Z,74.12
2019-01-22T20:42:17.494Z,73.93
2019-01-22T20:44:43.995Z,73.53
2019-01-22T20:47:10.492Z,74.33
2019-01-22T20:49:36.867Z,74.69
2019-01-22T20:52:03.257Z,74.26
2019-01-22T20:54:29.640Z,74.21
2019-01-22T20:56:56.086Z,74.15
2019-01-22T20:59:22.506Z,74.14
2019-01-22T21:01:48.940Z,74.04
2019-01-22T21:04:17.680Z,73.63
2019-01-22T21:06:44.046Z,73.40
2019-01-22T21:09:10.434Z,73.65
2019-01-22T21:11:36.966Z,74.60
2019-01-22T21:14:03.371Z,74.86
2019-01-22T21:16:29.892Z,74.54
2019-01-22T21:18:56.277Z,74.99
2019-01-22T21:21:23.444Z,75.14
2019-01-22T21:23:51.783Z,75.93
2019-01-22T21:26:18.232Z,76.14
2019-01-22T21:28:44.666Z,76.49
2019-01-22T21:31:11.115Z,75.16
2019-01-22T21:33:38.702Z,74.86
2019-01-22T21:36:05.156Z,74.87
2019-01-22T21:38:31.614Z,75.27
2019-01-22T21:40:58.227Z,75.95
2019-01-22T21:43:24.643Z,75.95
2019-01-22T21:45:51.413Z,76.22
2019-01-22T21:48:18.870Z,75.87
2019-01-22T21:50:45.289Z,75.78
2019-01-22T21:53:11.697Z,75.67
2019-01-22T21:55:38.075Z,75.39
2019-01-22T21:58:08.505Z,74.73
2019-01-22T22:00:37.081Z,74.96
2019-01-22T22:03:03.648Z,75.04
2019-01-22T22:05:30.061Z,74.85
2019-01-22T22:07:56.668Z,75.90
2019-01-22T22:10:23.037Z,76.64
2019-01-22T22:12:49.471Z,77.01
2019-01-22T22:15:19.103Z,77.17
2019-01-22T22:17:45.730Z,76.26
2019-01-22T22:20:14.594Z,76.25
2019-01-22T22:22:42.069Z,75.80
2019-01-22T22:25:12.172Z,76.39
2019-01-22T22:27:38.565Z,76.35
2019-01-22T22:30:10.773Z,76.26
2019-01-22T22:32:37.163Z,76.32
2019-01-22T22:35:06.707Z,76.67
2019-01-22T22:37:33.080Z,76.17
2019-01-22T22:39:59.484Z,76.02
2019-01-22T22:42:26.011Z,76.04
2019-01-22T22:44:52.366Z,75.75
2019-01-22T22:47:18.748Z,75.25
2019-01-22T22:49:45.170Z,75.20
2019-01-22T22:52:11.551Z,75.30
2019-01-22T22:54:38.259Z,75.94
2019-01-22T22:57:04.622Z,75.78
2019-01-22T22:59:30.979Z,76.34
2019-01-22T23:01:57.496Z,76.17
2019-01-22T23:04:23.955Z,76.05
2019-01-22T23:06:50.277Z,76.42
2019-01-22T23:09:49.764Z,76.73
2019-01-22T23:12:55.248Z,76.43
2019-01-22T23:15:27.630Z,76.44
2019-01-22T23:18:02.677Z,76.42
2019-01-22T23:20:30.185Z,76.77
2019-01-22T23:23:00.393Z,76.78
2019-01-22T23:25:27.978Z,76.59
2019-01-22T23:27:54.349Z,76.94
2019-01-22T23:30:20.762Z,76.97
2019-01-22T23:32:47.196Z,77.09
2019-01-22T23:35:13.633Z,76.64
2019-01-22T23:37:40.033Z,76.80
2019-01-22T23:40:10.846Z,76.66
2019-01-22T23:42:37.270Z,76.29
2019-01-22T23:45:08.376Z,76.39
2019-01-22T23:47:34.821Z,75.87
2019-01-22T23:50:01.213Z,75.95
2019-01-22T23:52:27.684Z,75.69
2019-01-22T23:54:54.170Z,76.03
2019-01-22T23:57:20.581Z,75.84
2019-01-22T23:59:46.947Z,76.39
